createdAt,value
2023-04-05T00:00:35.352Z,14.82
2023-04-05T00:03:17.888Z,15.57
2023-04-05T00:05:49.999Z,15.82
2023-04-05T00:10:52.404Z,14.98
2023-04-05T00:13:20.980Z,15.43
2023-04-05T00:15:49.712Z,16.70
2023-04-05T00:18:23.756Z,15.00
2023-04-05T00:20:53.658Z,15.18
2023-04-05T00:23:22.801Z,14.52
2023-04-05T00:25:51.056Z,13.25
2023-04-05T00:28:19.572Z,13.65
2023-04-05T00:30:47.739Z,13.73
2023-04-05T00:33:16.171Z,13.20
2023-04-05T00:35:44.299Z,13.45
2023-04-05T00:38:14.070Z,13.20
2023-04-05T00:40:42.604Z,12.95
2023-04-05T00:43:11.144Z,12.68
2023-04-05T00:45:39.241Z,13.15
2023-04-05T00:48:07.769Z,12.80
2023-04-05T00:50:36.131Z,12.70
2023-04-05T00:53:04.804Z,13.07
2023-04-05T00:55:34.935Z,11.93
2023-04-05T00:58:03.448Z,12.63
2023-04-05T01:00:31.870Z,12.32
2023-04-05T01:03:02.216Z,13.05
2023-04-05T01:05:37.483Z,11.93
2023-04-05T01:08:13.440Z,12.40
2023-04-05T01:10:47.133Z,12.35
2023-04-05T01:13:17.473Z,11.98
2023-04-05T01:15:45.712Z,12.18
2023-04-05T01:18:14.446Z,11.80
2023-04-05T01:20:53.671Z,12.50
2023-04-05T01:23:39.174Z,12.40
2023-04-05T01:26:43.331Z,12.65
2023-04-05T01:30:04.301Z,12.30
2023-04-05T01:32:44.021Z,12.50
2023-04-05T01:35:20.701Z,12.95
2023-04-05T01:37:53.784Z,12.60
2023-04-05T01:40:22.437Z,12.27
2023-04-05T01:42:50.661Z,13.30
2023-04-05T01:45:19.084Z,12.20
2023-04-05T01:47:48.720Z,11.95
2023-04-05T01:50:17.264Z,11.82
2023-04-05T01:52:45.360Z,12.27
2023-04-05T01:55:13.829Z,12.55
2023-04-05T01:57:41.953Z,12.45
2023-04-05T02:00:12.172Z,12.07
2023-04-05T02:02:40.513Z,12.15
2023-04-05T02:05:11.060Z,12.68
2023-04-05T02:07:39.208Z,13.77
2023-04-05T02:10:09.016Z,13.15
2023-04-05T02:12:37.251Z,13.32
2023-04-05T02:15:06.715Z,12.88
2023-04-05T02:17:39.375Z,12.30
2023-04-05T02:20:12.484Z,13.75
2023-04-05T02:22:41.023Z,13.13
2023-04-05T02:25:10.618Z,13.43
2023-04-05T02:27:38.769Z,14.30
2023-04-05T02:30:08.616Z,14.48
2023-04-05T02:32:36.823Z,14.50
2023-04-05T02:35:05.918Z,14.10
2023-04-05T02:37:35.507Z,15.27
2023-04-05T02:40:05.297Z,15.10
2023-04-05T02:42:33.399Z,13.95
2023-04-05T02:45:02.072Z,11.90
2023-04-05T02:47:30.305Z,12.23
2023-04-05T02:49:58.696Z,12.60
2023-04-05T02:52:26.902Z,12.05
2023-04-05T02:54:56.659Z,12.13
2023-04-05T02:57:24.776Z,11.93
2023-04-05T02:59:53.335Z,13.43
2023-04-05T03:02:21.816Z,13.18
2023-04-05T03:04:50.599Z,12.93
2023-04-05T03:07:18.756Z,13.32
2023-04-05T03:09:47.483Z,12.52
2023-04-05T03:12:16.935Z,13.02
2023-04-05T03:14:46.066Z,12.85
2023-04-05T03:17:14.273Z,12.65
2023-04-05T03:19:42.718Z,12.73
2023-04-05T03:22:10.968Z,12.18
2023-04-05T03:24:39.370Z,12.75
2023-04-05T03:27:07.584Z,13.60
2023-04-05T03:29:37.315Z,12.90
2023-04-05T03:32:05.774Z,14.82
2023-04-05T03:34:34.146Z,13.85
2023-04-05T03:37:02.246Z,14.35
2023-04-05T03:39:30.851Z,14.98
2023-04-05T03:41:58.955Z,14.82
2023-04-05T03:44:27.337Z,14.43
2023-04-05T03:46:56.893Z,15.55
2023-04-05T03:49:26.247Z,15.68
2023-04-05T03:51:54.361Z,14.27
2023-04-05T03:54:23.000Z,15.80
2023-04-05T03:56:51.357Z,15.27
2023-04-05T03:59:19.810Z,15.63
2023-04-05T04:01:48.194Z,15.50
2023-04-05T04:04:17.958Z,16.35
2023-04-05T04:06:46.053Z,14.63
2023-04-05T04:09:14.467Z,15.10
2023-04-05T04:11:42.558Z,14.63
2023-04-05T04:14:10.924Z,17.33
2023-04-05T04:16:39.087Z,15.45
2023-04-05T04:19:07.469Z,17.33
2023-04-05T04:21:39.554Z,16.42
2023-04-05T04:26:37.733Z,15.98
2023-04-05T04:29:06.825Z,16.50
2023-04-05T04:31:35.029Z,16.45
2023-04-05T04:34:05.502Z,17.33
2023-04-05T04:36:39.148Z,17.65
2023-04-05T04:39:10.178Z,17.83
2023-04-05T04:41:38.320Z,19.02
2023-04-05T04:44:06.836Z,18.02
2023-04-05T04:46:42.714Z,20.27
2023-04-05T04:49:11.303Z,18.23
2023-04-05T04:51:40.030Z,17.73
2023-04-05T04:54:09.798Z,18.23
2023-04-05T04:56:37.949Z,18.35
2023-04-05T04:59:06.354Z,17.25
2023-04-05T05:01:35.283Z,19.58
2023-04-05T05:04:04.854Z,19.10
2023-04-05T05:06:33.712Z,19.35
2023-04-05T05:09:02.348Z,17.70
2023-04-05T05:11:31.898Z,17.30
2023-04-05T05:14:00.489Z,19.80
2023-04-05T05:16:28.688Z,18.95
2023-04-05T05:18:57.082Z,18.58
2023-04-05T05:21:26.646Z,19.42
2023-04-05T05:23:55.347Z,38.92
2023-04-05T05:26:23.532Z,15.27
2023-04-05T05:28:53.262Z,17.38
2023-04-05T05:31:21.406Z,19.73
2023-04-05T05:33:50.579Z,19.80
2023-04-05T05:36:20.023Z,20.30
2023-04-05T05:38:49.072Z,21.77
2023-04-05T05:41:17.617Z,20.60
2023-04-05T05:43:46.199Z,26.27
2023-04-05T05:46:15.906Z,23.63
2023-04-05T05:48:44.314Z,22.00
2023-04-05T05:51:12.545Z,21.83
2023-04-05T05:53:42.003Z,21.48
2023-04-05T05:56:10.133Z,20.70
2023-04-05T05:58:39.870Z,22.70
2023-04-05T06:01:08.782Z,20.38
2023-04-05T06:03:38.793Z,20.73
2023-04-05T06:06:11.174Z,23.42
2023-04-05T06:08:39.700Z,19.80
2023-04-05T06:11:08.120Z,21.05
2023-04-05T06:13:37.991Z,75.28
2023-04-05T06:16:06.734Z,20.75
2023-04-05T06:18:35.397Z,33.05
2023-04-05T06:21:04.988Z,21.08
2023-04-05T06:23:33.854Z,17.17
2023-04-05T06:26:02.311Z,20.20
2023-04-05T06:28:30.853Z,14.25
2023-04-05T06:31:00.261Z,14.02
2023-04-05T06:33:29.139Z,14.35
2023-04-05T06:35:57.364Z,14.60
2023-04-05T06:38:27.241Z,16.55
2023-04-05T06:40:55.703Z,15.43
2023-04-05T06:43:24.180Z,13.88
2023-04-05T06:45:52.381Z,12.95
2023-04-05T06:48:21.371Z,13.32
2023-04-05T06:50:57.447Z,13.07
2023-04-05T06:53:27.932Z,12.45
2023-04-05T06:55:56.755Z,12.75
2023-04-05T06:58:26.436Z,12.30
2023-04-05T07:00:55.273Z,12.30
2023-04-05T07:03:23.770Z,12.68
2023-04-05T07:05:53.305Z,13.15
2023-04-05T07:08:22.408Z,12.98
2023-04-05T07:10:52.558Z,11.93
2023-04-05T07:13:22.542Z,11.18
2023-04-05T07:15:51.288Z,10.10
2023-04-05T07:18:20.496Z,12.27
2023-04-05T07:20:50.026Z,11.27
2023-04-05T07:23:20.014Z,11.80
2023-04-05T07:25:50.930Z,12.07
2023-04-05T07:28:19.422Z,12.10
2023-04-05T07:30:47.768Z,12.30
2023-04-05T07:33:16.549Z,12.70
2023-04-05T07:35:44.849Z,11.63
2023-04-05T07:38:13.628Z,10.32
2023-04-05T07:40:42.111Z,10.70
2023-04-05T07:43:12.481Z,13.05
2023-04-05T07:45:40.747Z,12.88
2023-04-05T07:48:09.316Z,13.18
2023-04-05T07:50:39.794Z,12.60
2023-04-05T07:53:08.774Z,12.43
2023-04-05T07:55:39.474Z,15.90
2023-04-05T07:58:07.864Z,12.75
2023-04-05T08:00:37.854Z,11.20
2023-04-05T08:03:06.533Z,6.00
2023-04-05T08:05:34.754Z,14.50
2023-04-05T08:08:03.696Z,10.68
2023-04-05T08:10:32.217Z,10.48
2023-04-05T08:13:00.635Z,10.77
2023-04-05T08:15:28.863Z,12.60
2023-04-05T08:17:58.812Z,12.07
2023-04-05T08:20:27.004Z,12.15
2023-04-05T08:22:55.565Z,10.43
2023-04-05T08:25:23.785Z,11.63
2023-04-05T08:27:52.180Z,7.78
2023-04-05T08:30:20.414Z,9.25
2023-04-05T08:32:48.876Z,9.25
2023-04-05T08:35:18.559Z,11.80
2023-04-05T08:37:48.473Z,11.80
2023-04-05T08:40:16.759Z,11.93
2023-04-05T08:42:53.475Z,11.30
2023-04-05T08:45:22.425Z,11.02
2023-04-05T08:47:51.163Z,11.73
2023-04-05T08:50:20.834Z,10.13
2023-04-05T08:52:50.723Z,9.15
2023-04-05T08:55:18.959Z,8.73
2023-04-05T08:57:51.436Z,9.02
2023-04-05T09:02:51.067Z,7.53
2023-04-05T09:05:22.038Z,9.05
2023-04-05T09:07:51.246Z,9.90
2023-04-05T09:10:20.826Z,10.38
2023-04-05T09:12:50.788Z,10.73
2023-04-05T09:15:24.245Z,9.30
2023-04-05T09:17:53.710Z,10.18
2023-04-05T09:20:23.599Z,8.57
2023-04-05T09:22:52.038Z,10.05
2023-04-05T09:25:35.542Z,9.32
2023-04-05T09:28:04.298Z,9.23
2023-04-05T09:30:33.311Z,11.77
2023-04-05T09:33:02.258Z,9.80
2023-04-05T09:35:33.471Z,10.45
2023-04-05T09:38:03.831Z,9.50
2023-04-05T09:40:45.789Z,10.75
2023-04-05T09:43:16.299Z,11.25
2023-04-05T09:45:46.038Z,11.90
2023-04-05T09:48:14.435Z,12.70
2023-04-05T09:50:43.960Z,13.57
2023-04-05T09:53:16.673Z,14.23
2023-04-05T09:55:44.953Z,14.50
2023-04-05T09:58:14.298Z,13.57
2023-04-05T10:00:57.907Z,12.75
2023-04-05T10:03:47.836Z,14.05
2023-04-05T10:06:18.011Z,13.38
2023-04-05T10:08:47.839Z,13.57
2023-04-05T10:11:19.770Z,13.80
2023-04-05T10:13:48.561Z,13.15
2023-04-05T10:16:21.512Z,12.93
2023-04-05T10:18:52.406Z,12.00
2023-04-05T10:21:24.249Z,14.52
2023-04-05T10:23:57.128Z,16.08
2023-04-05T10:26:32.391Z,16.20
2023-04-05T10:29:04.455Z,15.77
2023-04-05T10:31:39.954Z,15.63
2023-04-05T10:34:09.941Z,16.48
2023-04-05T10:36:51.193Z,15.13
2023-04-05T10:39:25.657Z,15.05
2023-04-05T10:41:55.526Z,14.77
2023-04-05T10:44:26.689Z,16.40
2023-04-05T10:46:55.809Z,14.18
2023-04-05T10:49:28.830Z,14.35
2023-04-05T10:51:58.879Z,14.13
2023-04-05T10:54:27.261Z,13.27
2023-04-05T10:56:56.525Z,14.88
2023-04-05T10:59:26.383Z,12.93
2023-04-05T11:01:54.878Z,13.52
2023-04-05T11:04:23.561Z,12.88
2023-04-05T11:07:12.260Z,13.63
2023-04-05T11:09:41.749Z,11.63
2023-04-05T11:12:10.148Z,12.43
2023-04-05T11:14:39.265Z,11.98
2023-04-05T11:17:25.496Z,11.15
2023-04-05T11:20:03.819Z,11.05
2023-04-05T11:22:33.534Z,11.18
2023-04-05T11:25:03.326Z,12.85
2023-04-05T11:27:32.635Z,12.98
2023-04-05T11:30:02.703Z,13.00
2023-04-05T11:32:41.614Z,14.10
2023-04-05T11:35:15.084Z,14.15
2023-04-05T11:37:58.728Z,13.43
2023-04-05T11:40:31.269Z,13.23
2023-04-05T11:43:07.734Z,11.85
2023-04-05T11:45:37.472Z,13.43
2023-04-05T11:48:09.890Z,12.40
2023-04-05T11:50:39.754Z,13.45
2023-04-05T11:53:16.314Z,13.63
2023-04-05T11:55:46.376Z,12.70
2023-04-05T11:58:18.577Z,14.30
2023-04-05T12:00:47.877Z,12.98
2023-04-05T12:03:17.086Z,11.77
2023-04-05T12:05:49.857Z,10.95
2023-04-05T12:08:20.397Z,10.52
2023-04-05T12:10:55.991Z,10.00
2023-04-05T12:13:31.453Z,10.35
2023-04-05T12:16:00.747Z,11.60
2023-04-05T12:18:31.049Z,11.27
2023-04-05T12:20:59.786Z,10.05
2023-04-05T12:23:30.381Z,11.88
2023-04-05T12:25:59.181Z,11.35
2023-04-05T12:28:27.456Z,13.88
2023-04-05T12:30:58.248Z,12.02
2023-04-05T12:33:30.267Z,12.57
2023-04-05T12:35:59.166Z,27.23
2023-04-05T12:38:29.491Z,88.78
2023-04-05T12:41:01.868Z,12.48
2023-04-05T12:43:39.793Z,10.80
2023-04-05T12:46:11.521Z,8.23
2023-04-05T12:48:39.802Z,9.05
2023-04-05T12:51:17.329Z,8.20
2023-04-05T12:53:49.953Z,9.20
2023-04-05T12:56:18.422Z,9.05
2023-04-05T12:58:50.492Z,8.88
2023-04-05T13:01:20.401Z,8.65
2023-04-05T13:03:49.818Z,8.15
2023-04-05T13:06:18.559Z,8.73
2023-04-05T13:08:47.202Z,9.15
2023-04-05T13:11:16.948Z,9.43
2023-04-05T13:13:45.246Z,9.13
2023-04-05T13:16:13.853Z,9.00
2023-04-05T13:18:42.057Z,10.32
2023-04-05T13:21:10.457Z,9.10
2023-04-05T13:23:40.000Z,8.93
2023-04-05T13:26:08.968Z,8.98
2023-04-05T13:28:38.724Z,7.75
2023-04-05T13:31:08.331Z,8.82
2023-04-05T13:33:36.817Z,8.98
2023-04-05T13:36:05.723Z,8.63
2023-04-05T13:38:34.011Z,8.43
2023-04-05T13:41:02.494Z,9.18
2023-04-05T13:43:31.204Z,8.25
2023-04-05T13:46:01.314Z,9.60
2023-04-05T13:48:29.652Z,8.20
2023-04-05T13:50:58.143Z,8.45
2023-04-05T13:53:28.462Z,9.48
2023-04-05T13:55:57.170Z,9.18
2023-04-05T13:58:25.549Z,12.88
2023-04-05T14:00:54.320Z,7.95
2023-04-05T14:03:24.178Z,8.02
2023-04-05T14:05:55.269Z,8.07
2023-04-05T14:08:23.991Z,8.05
2023-04-05T14:10:52.519Z,7.65
2023-04-05T14:13:20.852Z,7.90
2023-04-05T14:15:49.506Z,7.47
2023-04-05T14:18:17.783Z,8.23
2023-04-05T14:20:47.707Z,8.82
2023-04-05T14:23:15.919Z,8.55
2023-04-05T14:25:44.675Z,8.88
2023-04-05T14:28:12.942Z,8.85
2023-04-05T14:30:41.795Z,10.43
2023-04-05T14:33:10.495Z,11.98
2023-04-05T14:35:39.124Z,9.75
2023-04-05T14:38:08.776Z,8.93
2023-04-05T14:40:37.214Z,8.70
2023-04-05T14:43:06.197Z,8.93
2023-04-05T14:45:34.714Z,9.65
2023-04-05T14:48:03.025Z,9.82
2023-04-05T14:50:32.581Z,14.07
2023-04-05T14:53:00.878Z,8.90
2023-04-05T14:55:30.954Z,9.63
2023-04-05T14:57:59.116Z,16.10
2023-04-05T15:00:27.864Z,8.00
2023-04-05T15:02:56.337Z,9.32
2023-04-05T15:05:24.859Z,10.30
2023-04-05T15:07:53.151Z,9.10
2023-04-05T15:10:21.590Z,12.07
2023-04-05T15:12:51.292Z,8.90
2023-04-05T15:15:20.103Z,9.73
2023-04-05T15:17:48.474Z,10.32
2023-04-05T15:20:17.133Z,17.55
2023-04-05T15:22:45.539Z,11.50
2023-04-05T15:25:14.193Z,13.75
2023-04-05T15:27:42.382Z,21.70
2023-04-05T15:30:13.497Z,27.67
2023-04-05T15:32:41.873Z,8.65
2023-04-05T15:35:10.898Z,8.55
2023-04-05T15:37:40.848Z,7.82
2023-04-05T15:40:10.462Z,7.95
2023-04-05T15:42:38.660Z,11.45
2023-04-05T15:45:08.355Z,9.57
2023-04-05T15:47:38.137Z,11.65
2023-04-05T15:50:07.225Z,7.28
2023-04-05T15:52:36.391Z,13.32
2023-04-05T15:55:05.340Z,8.88
2023-04-05T15:57:33.700Z,21.77
2023-04-05T16:00:02.139Z,17.63
2023-04-05T16:02:31.363Z,16.90
2023-04-05T16:05:01.585Z,22.33
2023-04-05T16:07:29.876Z,23.00
2023-04-05T16:09:58.785Z,25.20
2023-04-05T16:12:27.255Z,17.92
2023-04-05T16:14:56.170Z,17.95
2023-04-05T16:17:25.443Z,27.95
2023-04-05T16:19:56.432Z,20.25
2023-04-05T16:22:27.043Z,10.57
2023-04-05T16:24:55.571Z,7.88
2023-04-05T16:27:23.759Z,8.63
2023-04-05T16:29:52.306Z,7.40
2023-04-05T16:32:20.791Z,8.20
2023-04-05T16:34:49.548Z,9.45
2023-04-05T16:37:17.981Z,7.40
2023-04-05T16:39:47.766Z,7.40
2023-04-05T16:42:16.139Z,6.85
2023-04-05T16:44:45.063Z,6.82
2023-04-05T16:47:13.381Z,6.45
2023-04-05T16:49:41.878Z,7.22
2023-04-05T16:52:10.379Z,7.50
2023-04-05T16:54:39.079Z,6.90
2023-04-05T16:57:08.648Z,8.98
2023-04-05T16:59:37.492Z,12.88
2023-04-05T17:02:05.920Z,10.75
2023-04-05T17:04:36.015Z,12.63
2023-04-05T17:07:05.802Z,10.88
2023-04-05T17:09:34.421Z,9.77
2023-04-05T17:12:03.586Z,9.38
2023-04-05T17:14:34.048Z,9.35
2023-04-05T17:17:02.400Z,10.52
2023-04-05T17:19:31.520Z,10.70
2023-04-05T17:21:59.914Z,10.18
2023-04-05T17:24:29.249Z,9.93
2023-04-05T17:26:57.846Z,9.05
2023-04-05T17:29:26.410Z,8.10
2023-04-05T17:31:56.883Z,7.90
2023-04-05T17:34:25.435Z,7.68
2023-04-05T17:36:53.900Z,9.05
2023-04-05T17:39:22.601Z,11.43
2023-04-05T17:41:51.350Z,15.50
2023-04-05T17:44:19.936Z,12.85
2023-04-05T17:46:57.341Z,10.82
2023-04-05T17:49:36.428Z,13.35
2023-04-05T17:52:05.080Z,15.57
2023-04-05T17:54:37.063Z,13.63
2023-04-05T17:57:06.142Z,13.98
2023-04-05T17:59:35.974Z,13.10
2023-04-05T18:02:04.529Z,12.73
2023-04-05T18:04:33.428Z,14.88
2023-04-05T18:07:03.300Z,13.20
2023-04-05T18:09:33.114Z,15.25
2023-04-05T18:12:02.369Z,14.60
2023-04-05T18:14:31.347Z,13.68
2023-04-05T18:17:00.292Z,13.25
2023-04-05T18:19:29.225Z,12.50
2023-04-05T18:21:57.593Z,12.93
2023-04-05T18:24:27.718Z,10.95
2023-04-05T18:26:56.215Z,12.05
2023-04-05T18:29:28.377Z,12.35
2023-04-05T18:31:57.889Z,11.45
2023-04-05T18:34:26.937Z,12.55
2023-04-05T18:36:55.305Z,13.07
2023-04-05T18:39:27.344Z,15.05
2023-04-05T18:41:57.615Z,16.55
2023-04-05T18:44:26.634Z,15.55
2023-04-05T18:46:55.052Z,16.70
2023-04-05T18:49:23.766Z,18.48
2023-04-05T18:51:52.217Z,18.60
2023-04-05T18:54:20.900Z,17.38
2023-04-05T18:56:49.146Z,20.13
2023-04-05T18:59:19.866Z,23.85
2023-04-05T19:01:48.163Z,26.75
2023-04-05T19:04:17.246Z,30.15
2023-04-05T19:06:45.582Z,26.70
2023-04-05T19:09:15.945Z,26.05
2023-04-05T19:11:44.139Z,27.27
2023-04-05T19:14:12.869Z,27.83
2023-04-05T19:16:42.513Z,27.67
2023-04-05T19:19:11.266Z,27.98
2023-04-05T19:21:39.779Z,26.77
2023-04-05T19:24:09.721Z,27.60
2023-04-05T19:26:38.025Z,25.17
2023-04-05T19:29:07.179Z,29.23
2023-04-05T19:31:36.868Z,29.23
2023-04-05T19:34:07.778Z,23.20
2023-04-05T19:36:36.792Z,24.35
2023-04-05T19:39:06.418Z,22.35
2023-04-05T19:41:35.013Z,22.63
2023-04-05T19:44:07.460Z,22.77
2023-04-05T19:46:39.930Z,19.38
2023-04-05T19:49:11.671Z,22.08
2023-04-05T19:51:40.019Z,20.05
2023-04-05T19:54:11.866Z,23.10
2023-04-05T19:56:40.573Z,21.80
2023-04-05T19:59:26.942Z,21.23
2023-04-05T20:01:55.321Z,19.90
2023-04-05T20:04:26.137Z,19.02
2023-04-05T20:06:55.976Z,21.30
2023-04-05T20:09:26.165Z,20.40
2023-04-05T20:11:57.941Z,20.33
2023-04-05T20:14:28.893Z,18.77
2023-04-05T20:16:58.241Z,19.70
2023-04-05T20:19:31.030Z,20.40
2023-04-05T20:21:59.884Z,20.05
2023-04-05T20:24:29.246Z,18.45
2023-04-05T20:26:57.766Z,19.95
2023-04-05T20:29:27.731Z,19.52
2023-04-05T20:31:56.566Z,20.30
2023-04-05T20:34:30.910Z,22.33
2023-04-05T20:37:01.878Z,24.92
2023-04-05T20:39:31.005Z,22.60
2023-04-05T20:41:59.359Z,23.52
2023-04-05T20:44:28.290Z,22.67
2023-04-05T20:46:58.100Z,23.42
2023-04-05T20:49:28.041Z,24.77
2023-04-05T20:51:57.963Z,29.55
2023-04-05T20:54:26.701Z,28.40
2023-04-05T20:56:54.955Z,29.65
2023-04-05T20:59:23.483Z,31.67
2023-04-05T21:01:51.771Z,31.48
2023-04-05T21:04:20.646Z,34.58
2023-04-05T21:06:48.908Z,34.22
2023-04-05T21:09:18.753Z,34.58
2023-04-05T21:11:47.115Z,36.80
2023-04-05T21:14:16.198Z,39.03
2023-04-05T21:16:44.462Z,38.63
2023-04-05T21:19:12.889Z,36.45
2023-04-05T21:21:41.128Z,36.50
2023-04-05T21:24:09.557Z,37.20
2023-04-05T21:26:39.091Z,33.33
2023-04-05T21:29:07.876Z,35.70
2023-04-05T21:31:36.446Z,34.20
2023-04-05T21:34:04.954Z,34.63
2023-04-05T21:36:33.398Z,33.90
2023-04-05T21:39:01.855Z,35.28
2023-04-05T21:41:30.083Z,32.05
2023-04-05T21:44:00.456Z,27.60
2023-04-05T21:46:28.717Z,25.05
2023-04-05T21:48:57.375Z,22.17
2023-04-05T21:51:25.807Z,22.17
2023-04-05T21:53:54.227Z,20.75
2023-04-05T21:56:22.427Z,22.05
2023-04-05T21:58:50.898Z,17.65
2023-04-05T22:01:20.754Z,15.38
2023-04-05T22:03:49.357Z,14.40
2023-04-05T22:06:17.493Z,13.20
2023-04-05T22:08:45.995Z,12.48
2023-04-05T22:11:14.551Z,12.70
2023-04-05T22:13:45.001Z,12.77
2023-04-05T22:16:13.284Z,12.70
2023-04-05T22:18:43.172Z,11.23
2023-04-05T22:21:12.221Z,11.27
2023-04-05T22:23:42.726Z,11.63
2023-04-05T22:26:11.187Z,12.27
2023-04-05T22:28:39.710Z,12.75
2023-04-05T22:31:07.927Z,10.80
2023-04-05T22:33:36.365Z,10.65
2023-04-05T22:36:06.840Z,9.98
2023-04-05T22:38:35.349Z,10.30
2023-04-05T22:41:03.759Z,9.55
2023-04-05T22:43:32.193Z,10.45
2023-04-05T22:46:00.420Z,10.73
2023-04-05T22:48:28.923Z,10.25
2023-04-05T22:50:57.138Z,9.88
2023-04-05T22:53:26.953Z,10.73
2023-04-05T22:55:55.384Z,10.48
2023-04-05T22:58:23.910Z,10.93
2023-04-05T23:00:52.107Z,10.43
2023-04-05T23:03:20.850Z,11.05
2023-04-05T23:05:52.008Z,10.75
2023-04-05T23:08:20.505Z,10.87
2023-04-05T23:10:50.340Z,11.18
2023-04-05T23:13:19.200Z,10.63
2023-04-05T23:15:47.435Z,10.40
2023-04-05T23:18:21.797Z,10.15
2023-04-05T23:20:50.096Z,10.35
2023-04-05T23:23:18.661Z,11.05
2023-04-05T23:25:46.868Z,11.05
2023-04-05T23:28:16.655Z,10.23
2023-04-05T23:30:44.959Z,9.35
2023-04-05T23:33:13.911Z,10.40
2023-04-05T23:35:42.253Z,10.23
2023-04-05T23:38:10.806Z,10.77
2023-04-05T23:40:38.982Z,10.02
2023-04-05T23:43:07.456Z,9.05
2023-04-05T23:45:36.996Z,9.52
2023-04-05T23:48:06.014Z,7.90
2023-04-05T23:50:34.250Z,7.97
2023-04-05T23:53:03.300Z,8.98
2023-04-05T23:55:32.801Z,8.45
2023-04-05T23:58:01.427Z,7.70
